Denmark, Maine
Current Conditions -  °F | °C
As of 11:54 PM on Sunday 19 Oct 2014 (Local Time) from KIZG Reporting Station
Few Clouds Few Clouds  
Wind Chill: 34°   Ceiling: Unl
Heat Index: 40°   Visibility: 10mi
Dew Point: 26°   Wind: 9mph
Humidity: 58%   Direction: 290°WNW
Pressure: 29.88"   Gusts: NA
Location:  43.97°N, 70.8°W
Report Text: KIZG 200354Z AUTO 29008KT 10SM FEW055 04/M03 A2988 RMK AO2 SLP123 T00441033
Loading
Personal Weather Stations






























Interactive Weather Map
Tropical Storm Tracking
New forecast layout! Learn more

10-Day Weather Forecast

Advertisements
Track Severe Weather on mobile